createdAt,value
2019-02-12T00:01:56.512Z,6.53
2019-02-12T00:04:27.318Z,8.40
2019-02-12T00:06:58.206Z,6.50
2019-02-12T00:09:28.986Z,7.93
2019-02-12T00:11:59.958Z,6.60
2019-02-12T00:14:30.864Z,11.00
2019-02-12T00:17:01.847Z,7.93
2019-02-12T00:19:32.743Z,6.07
2019-02-12T00:22:03.743Z,6.20
2019-02-12T00:24:34.510Z,6.53
2019-02-12T00:27:05.488Z,9.00
2019-02-12T00:29:36.398Z,7.50
2019-02-12T00:32:07.234Z,9.50
2019-02-12T00:34:38.980Z,7.93
2019-02-12T00:37:09.931Z,8.17
2019-02-12T00:39:40.871Z,6.60
2019-02-12T00:42:11.767Z,7.70
2019-02-12T00:44:42.531Z,7.80
2019-02-12T00:47:13.459Z,8.33
2019-02-12T00:49:44.509Z,6.80
2019-02-12T00:52:15.359Z,7.60
2019-02-12T00:54:46.339Z,6.87
2019-02-12T00:57:17.239Z,7.07
2019-02-12T00:59:49.148Z,10.47
2019-02-12T01:02:20.310Z,9.47
2019-02-12T01:04:51.283Z,7.17
2019-02-12T01:07:22.104Z,6.60
2019-02-12T01:09:52.986Z,8.23
2019-02-12T01:12:23.786Z,8.97
2019-02-12T01:14:54.797Z,10.03
2019-02-12T01:17:25.659Z,10.47
2019-02-12T01:19:56.631Z,8.03
2019-02-12T01:22:27.531Z,7.70
2019-02-12T01:24:58.510Z,9.57
2019-02-12T01:27:29.319Z,7.80
2019-02-12T01:30:00.319Z,7.83
2019-02-12T01:32:31.196Z,6.83
2019-02-12T01:35:02.083Z,7.40
2019-02-12T01:37:32.856Z,6.97
2019-02-12T01:40:03.913Z,7.10
2019-02-12T01:42:34.850Z,11.40
2019-02-12T01:45:06.011Z,6.50
2019-02-12T01:47:36.916Z,6.43
2019-02-12T01:50:08.848Z,7.40
2019-02-12T01:52:39.727Z,9.50
2019-02-12T01:55:10.805Z,9.00
2019-02-12T01:57:41.590Z,8.23
2019-02-12T02:00:16.078Z,6.10
2019-02-12T02:02:46.963Z,7.90
2019-02-12T02:05:17.945Z,12.83
2019-02-12T02:07:48.833Z,9.20
2019-02-12T02:10:20.122Z,5.80
2019-02-12T02:12:50.923Z,6.70
2019-02-12T02:15:22.198Z,7.30
2019-02-12T02:17:52.986Z,8.50
2019-02-12T02:20:23.877Z,6.57
2019-02-12T02:22:54.681Z,7.87
2019-02-12T02:25:25.639Z,7.70
2019-02-12T02:27:56.459Z,10.83
2019-02-12T02:30:27.422Z,5.97
2019-02-12T02:32:58.217Z,6.27
2019-02-12T02:35:29.163Z,5.60
2019-02-12T02:38:00.002Z,5.73
2019-02-12T02:40:30.997Z,5.37
2019-02-12T02:43:01.882Z,5.27
2019-02-12T02:45:32.928Z,5.70
2019-02-12T02:48:03.872Z,7.63
2019-02-12T02:50:34.822Z,8.40
2019-02-12T02:53:05.735Z,5.40
2019-02-12T02:55:36.702Z,7.10
2019-02-12T02:58:07.603Z,7.10
2019-02-12T03:00:38.583Z,8.53
2019-02-12T03:03:09.394Z,6.57
2019-02-12T03:05:40.584Z,5.80
2019-02-12T03:08:11.356Z,6.87
2019-02-12T03:10:42.349Z,6.93
2019-02-12T03:13:13.127Z,6.30
2019-02-12T03:15:44.085Z,8.43
2019-02-12T03:18:15.020Z,7.40
2019-02-12T03:20:46.201Z,10.63
2019-02-12T03:23:16.998Z,6.13
2019-02-12T03:25:47.943Z,5.83
2019-02-12T03:28:18.859Z,8.47
2019-02-12T03:30:49.773Z,5.20
2019-02-12T03:33:20.556Z,8.70
2019-02-12T03:35:51.546Z,7.87
2019-02-12T03:38:22.416Z,9.20
2019-02-12T03:40:53.202Z,7.00
2019-02-12T03:43:24.086Z,7.33
2019-02-12T03:45:55.062Z,6.20
2019-02-12T03:48:25.976Z,7.80
2019-02-12T03:50:56.958Z,5.97
2019-02-12T03:53:27.770Z,5.70
2019-02-12T03:55:58.759Z,7.13
2019-02-12T03:58:29.734Z,5.27
2019-02-12T04:01:00.735Z,7.93
2019-02-12T04:03:32.102Z,7.77
2019-02-12T04:06:03.127Z,7.30
2019-02-12T04:08:33.899Z,11.03
2019-02-12T04:11:04.865Z,6.20
2019-02-12T04:13:35.655Z,14.33
2019-02-12T04:16:06.604Z,8.73
2019-02-12T04:18:37.453Z,13.13
2019-02-12T04:21:08.336Z,6.33
2019-02-12T04:23:39.224Z,10.93
2019-02-12T04:26:10.201Z,7.57
2019-02-12T04:28:40.982Z,7.77
2019-02-12T04:31:11.914Z,4.73
2019-02-12T04:33:42.874Z,6.50
2019-02-12T04:36:13.866Z,5.87
2019-02-12T04:38:44.731Z,9.80
2019-02-12T04:41:15.529Z,11.63
2019-02-12T04:43:46.415Z,7.10
2019-02-12T04:46:17.390Z,10.07
2019-02-12T04:48:48.315Z,6.70
2019-02-12T04:51:19.438Z,9.47
2019-02-12T04:53:50.362Z,8.57
2019-02-12T04:56:21.356Z,8.53
2019-02-12T04:58:52.188Z,8.57
2019-02-12T05:01:23.227Z,9.07
2019-02-12T05:03:54.025Z,8.03
2019-02-12T05:06:25.009Z,5.80
2019-02-12T05:09:22.839Z,11.77
2019-02-12T05:11:55.980Z,7.27
2019-02-12T05:14:26.974Z,8.80
2019-02-12T05:16:57.762Z,8.50
2019-02-12T05:19:29.660Z,7.27
2019-02-12T05:22:00.639Z,10.50
2019-02-12T05:24:31.450Z,11.07
2019-02-12T05:27:02.349Z,9.60
2019-02-12T05:29:33.212Z,10.00
2019-02-12T05:32:04.140Z,9.27
2019-02-12T05:34:35.448Z,11.23
2019-02-12T05:37:06.236Z,11.27
2019-02-12T05:39:37.080Z,10.90
2019-02-12T05:42:07.978Z,9.97
2019-02-12T05:44:38.646Z,12.67
2019-02-12T05:47:09.382Z,11.57
2019-02-12T05:49:40.384Z,12.50
2019-02-12T05:52:11.350Z,15.00
2019-02-12T05:54:42.244Z,11.13
2019-02-12T05:57:13.230Z,13.90
2019-02-12T05:59:46.862Z,14.47
2019-02-12T06:02:16.668Z,12.83
2019-02-12T06:04:47.643Z,12.07
2019-02-12T06:07:18.524Z,12.40
2019-02-12T06:09:49.824Z,10.97
2019-02-12T06:12:20.612Z,12.83
2019-02-12T06:14:51.406Z,12.87
2019-02-12T06:17:22.278Z,13.47
2019-02-12T06:19:53.549Z,13.90
2019-02-12T06:22:24.267Z,14.40
2019-02-12T06:24:55.246Z,12.80
2019-02-12T06:27:26.032Z,14.03
2019-02-12T06:29:57.016Z,18.60
2019-02-12T06:32:27.918Z,16.90
2019-02-12T06:34:58.796Z,18.30
2019-02-12T06:37:29.605Z,18.17
2019-02-12T06:40:00.591Z,17.87
2019-02-12T06:42:31.685Z,17.07
2019-02-12T06:45:02.667Z,17.50
2019-02-12T06:47:33.580Z,16.67
2019-02-12T06:50:05.199Z,15.87
2019-02-12T06:52:36.147Z,18.17
2019-02-12T06:55:07.441Z,16.47
2019-02-12T06:57:38.514Z,20.33
2019-02-12T07:00:10.299Z,16.40
2019-02-12T07:03:16.855Z,21.73
2019-02-12T07:06:23.850Z,16.30
2019-02-12T07:09:21.583Z,18.23
2019-02-12T07:12:54.155Z,18.00
2019-02-12T07:15:37.534Z,15.80
2019-02-12T07:19:04.061Z,17.03
2019-02-12T07:22:12.489Z,18.60
2019-02-12T07:25:09.042Z,21.07
2019-02-12T07:28:23.681Z,16.50
2019-02-12T07:31:27.014Z,19.20
2019-02-12T07:34:22.119Z,16.20
2019-02-12T07:37:42.792Z,17.87
2019-02-12T07:40:51.424Z,15.40
2019-02-12T07:43:49.961Z,17.03
2019-02-12T07:46:42.952Z,21.77
2019-02-12T07:49:53.727Z,18.17
2019-02-12T07:52:53.046Z,17.33
2019-02-12T07:56:04.465Z,20.60
2019-02-12T07:59:19.191Z,21.00
2019-02-12T08:02:33.959Z,17.47
2019-02-12T08:05:31.128Z,19.73
2019-02-12T08:08:31.293Z,22.93
2019-02-12T08:11:07.195Z,18.90
2019-02-12T08:14:11.092Z,22.10
2019-02-12T08:17:25.325Z,20.80
2019-02-12T08:20:42.960Z,19.53
2019-02-12T08:23:47.440Z,21.50
2019-02-12T08:26:37.951Z,18.63
2019-02-12T08:29:57.387Z,22.60
2019-02-12T08:33:15.114Z,18.63
2019-02-12T08:36:25.579Z,21.20
2019-02-12T08:39:12.596Z,17.63
2019-02-12T08:42:19.084Z,20.10
2019-02-12T08:45:27.914Z,16.50
2019-02-12T08:48:25.762Z,15.77
2019-02-12T08:51:36.537Z,16.63
2019-02-12T08:54:49.661Z,13.67
2019-02-12T08:57:59.048Z,14.93
2019-02-12T09:01:12.845Z,12.13
2019-02-12T09:04:27.714Z,17.47
2019-02-12T09:07:32.559Z,15.77
2019-02-12T09:10:28.472Z,13.30
2019-02-12T09:13:35.354Z,15.97
2019-02-12T09:16:31.278Z,18.43
2019-02-12T09:19:40.032Z,18.97
2019-02-12T09:22:46.783Z,24.27
2019-02-12T09:26:01.757Z,18.90
2019-02-12T09:29:05.459Z,14.30
2019-02-12T09:32:22.068Z,15.30
2019-02-12T09:35:11.900Z,13.77
2019-02-12T09:38:35.218Z,11.60
2019-02-12T09:41:19.776Z,13.83
2019-02-12T09:44:52.871Z,13.90
2019-02-12T09:47:50.406Z,14.07
2019-02-12T09:51:04.793Z,14.57
2019-02-12T09:54:28.362Z,12.63
2019-02-12T09:57:25.415Z,16.43
2019-02-12T10:00:33.012Z,12.67
2019-02-12T10:03:47.574Z,12.87
2019-02-12T10:06:56.895Z,12.90
2019-02-12T10:10:01.540Z,14.50
2019-02-12T10:12:49.745Z,12.93
2019-02-12T10:16:07.417Z,13.37
2019-02-12T10:19:05.242Z,12.83
2019-02-12T10:22:12.383Z,9.83
2019-02-12T10:25:16.418Z,11.27
2019-02-12T10:28:25.116Z,17.90
2019-02-12T10:31:03.016Z,14.33
2019-02-12T10:33:33.953Z,14.13
2019-02-12T10:36:04.948Z,11.70
2019-02-12T10:38:35.845Z,14.47
2019-02-12T10:41:06.680Z,12.20
2019-02-12T10:43:37.564Z,14.03
2019-02-12T10:46:08.441Z,9.80
2019-02-12T10:48:39.558Z,13.17
2019-02-12T10:51:10.438Z,10.57
2019-02-12T10:53:41.407Z,10.53
2019-02-12T10:56:12.291Z,13.27
2019-02-12T10:58:43.219Z,12.93
2019-02-12T11:01:14.173Z,12.13
2019-02-12T11:03:45.285Z,10.10
2019-02-12T11:06:16.248Z,11.30
2019-02-12T11:08:47.319Z,12.13
2019-02-12T11:11:18.249Z,12.50
2019-02-12T11:13:49.255Z,13.10
2019-02-12T11:16:20.207Z,9.40
2019-02-12T11:18:51.387Z,10.80
2019-02-12T11:21:22.211Z,10.17
2019-02-12T11:23:53.260Z,12.97
2019-02-12T11:26:24.178Z,10.53
2019-02-12T11:28:55.456Z,8.80
2019-02-12T11:31:26.272Z,10.77
2019-02-12T11:33:57.244Z,7.30
2019-02-12T11:36:28.035Z,10.10
2019-02-12T11:38:58.959Z,10.57
2019-02-12T11:41:29.823Z,9.37
2019-02-12T11:44:00.718Z,10.10
2019-02-12T11:46:31.390Z,11.57
2019-02-12T11:49:02.383Z,11.50
2019-02-12T11:51:33.256Z,10.90
2019-02-12T11:54:04.031Z,10.90
2019-02-12T11:56:34.827Z,10.70
2019-02-12T11:59:06.072Z,11.23
2019-02-12T12:01:37.022Z,8.40
2019-02-12T12:04:08.019Z,9.60
2019-02-12T12:06:38.879Z,12.03
2019-02-12T12:09:09.883Z,10.47
2019-02-12T12:11:40.660Z,10.60
2019-02-12T12:14:11.859Z,11.40
2019-02-12T12:16:42.655Z,13.47
2019-02-12T12:19:13.558Z,9.37
2019-02-12T12:21:45.545Z,10.77
2019-02-12T12:24:16.545Z,13.30
2019-02-12T12:26:47.434Z,10.93
2019-02-12T12:29:18.400Z,13.07
2019-02-12T12:31:49.459Z,13.07
2019-02-12T12:34:20.328Z,10.90
2019-02-12T12:36:51.191Z,11.23
2019-02-12T12:39:22.155Z,10.17
2019-02-12T12:41:53.064Z,9.80
2019-02-12T12:44:24.526Z,9.23
2019-02-12T12:46:55.334Z,9.40
2019-02-12T12:49:27.330Z,14.03
2019-02-12T12:51:58.346Z,11.20
2019-02-12T12:54:29.250Z,9.43
2019-02-12T12:57:01.348Z,11.30
2019-02-12T12:59:32.445Z,9.90
2019-02-12T13:02:03.340Z,13.87
2019-02-12T13:04:34.307Z,10.23
2019-02-12T13:07:05.104Z,17.90
2019-02-12T13:09:36.003Z,10.87
2019-02-12T13:12:06.885Z,7.00
2019-02-12T13:14:37.686Z,6.90
2019-02-12T13:17:08.565Z,11.47
2019-02-12T13:19:39.509Z,8.83
2019-02-12T13:22:10.315Z,7.40
2019-02-12T13:24:41.805Z,6.17
2019-02-12T13:27:12.702Z,5.30
2019-02-12T13:29:43.598Z,7.57
2019-02-12T13:32:14.379Z,8.80
2019-02-12T13:34:45.291Z,5.47
2019-02-12T13:37:16.070Z,4.87
2019-02-12T13:39:47.318Z,8.30
2019-02-12T13:42:18.131Z,5.60
2019-02-12T13:44:49.148Z,5.80
2019-02-12T13:47:19.928Z,10.43
2019-02-12T13:49:51.001Z,5.40
2019-02-12T13:52:21.802Z,6.03
2019-02-12T13:54:52.927Z,5.20
2019-02-12T13:57:23.969Z,3.33
2019-02-12T13:59:54.881Z,4.43
2019-02-12T14:02:25.743Z,6.10
2019-02-12T14:04:56.753Z,5.50
2019-02-12T14:07:27.539Z,7.47
2019-02-12T14:09:58.510Z,9.20
2019-02-12T14:12:29.309Z,6.23
2019-02-12T14:15:00.275Z,5.90
2019-02-12T14:17:31.172Z,8.13
2019-02-12T14:20:02.084Z,7.70
2019-02-12T14:22:32.862Z,10.77
2019-02-12T14:25:03.855Z,5.73
2019-02-12T14:27:34.738Z,6.80
2019-02-12T14:30:06.144Z,5.80
2019-02-12T14:32:37.425Z,4.17
2019-02-12T14:35:19.731Z,7.93
2019-02-12T14:37:50.557Z,6.80
2019-02-12T14:40:21.515Z,10.63
2019-02-12T14:42:52.408Z,12.30
2019-02-12T14:45:23.269Z,9.20
2019-02-12T14:47:54.163Z,16.50
2019-02-12T14:50:25.055Z,11.30
2019-02-12T14:52:55.970Z,12.10
2019-02-12T14:55:33.544Z,9.63
2019-02-12T14:57:59.667Z,9.33
2019-02-12T15:00:30.542Z,7.97
2019-02-12T15:03:01.557Z,11.17
2019-02-12T15:05:32.437Z,7.37
2019-02-12T15:08:03.418Z,5.10
2019-02-12T15:10:34.199Z,7.87
2019-02-12T15:13:05.029Z,5.80
2019-02-12T15:15:36.307Z,5.27
2019-02-12T15:18:08.254Z,10.63
2019-02-12T15:20:39.381Z,4.70
2019-02-12T15:23:10.395Z,6.30
2019-02-12T15:25:42.164Z,6.43
2019-02-12T15:28:13.144Z,5.47
2019-02-12T15:30:44.001Z,6.80
2019-02-12T15:33:14.899Z,5.77
2019-02-12T15:35:45.801Z,6.97
2019-02-12T15:38:16.588Z,7.40
2019-02-12T15:40:47.467Z,7.00
2019-02-12T15:43:18.345Z,8.30
2019-02-12T15:45:49.333Z,6.00
2019-02-12T15:48:20.123Z,4.50
2019-02-12T15:50:51.178Z,4.47
2019-02-12T15:53:22.026Z,6.53
2019-02-12T15:55:52.855Z,8.03
2019-02-12T15:58:23.828Z,8.13
2019-02-12T16:00:54.610Z,6.87
2019-02-12T16:03:25.498Z,6.50
2019-02-12T16:05:57.201Z,9.60
2019-02-12T16:08:30.479Z,9.30
2019-02-12T16:11:01.442Z,8.83
2019-02-12T16:13:33.099Z,10.70
2019-02-12T16:16:05.737Z,6.57
2019-02-12T16:18:37.525Z,4.70
2019-02-12T16:21:08.382Z,7.50
2019-02-12T16:23:39.331Z,8.30
2019-02-12T16:26:10.141Z,5.60
2019-02-12T16:28:41.085Z,6.40
2019-02-12T16:31:12.034Z,6.53
2019-02-12T16:33:42.923Z,7.20
2019-02-12T16:36:14.794Z,7.40
2019-02-12T16:38:45.776Z,6.27
2019-02-12T16:41:16.881Z,8.63
2019-02-12T16:43:47.735Z,8.97
2019-02-12T16:46:20.834Z,7.80
2019-02-12T16:48:51.674Z,6.57
2019-02-12T16:51:23.044Z,7.87
2019-02-12T16:53:53.967Z,7.50
2019-02-12T16:56:25.043Z,11.93
2019-02-12T16:59:03.412Z,10.60
2019-02-12T17:01:28.455Z,6.83
2019-02-12T17:03:59.339Z,12.50
2019-02-12T17:06:30.362Z,8.80
2019-02-12T17:09:02.157Z,9.30
2019-02-12T17:11:34.583Z,14.20
2019-02-12T17:14:05.264Z,8.43
2019-02-12T17:16:38.128Z,9.33
2019-02-12T17:19:09.075Z,8.47
2019-02-12T17:21:39.974Z,9.03
2019-02-12T17:24:11.098Z,7.13
2019-02-12T17:26:42.238Z,8.60
2019-02-12T17:29:13.490Z,9.37
2019-02-12T17:31:46.329Z,6.57
2019-02-12T17:34:18.795Z,9.90
2019-02-12T17:36:49.692Z,9.80
2019-02-12T17:39:20.680Z,12.30
2019-02-12T17:41:51.860Z,12.00
2019-02-12T17:44:22.650Z,9.10
2019-02-12T17:46:53.542Z,8.03
2019-02-12T17:49:24.428Z,12.47
2019-02-12T17:51:56.532Z,14.27
2019-02-12T17:54:27.348Z,16.63
2019-02-12T17:56:58.307Z,8.50
2019-02-12T17:59:29.330Z,12.73
2019-02-12T18:02:00.404Z,10.40
2019-02-12T18:04:31.183Z,10.93
2019-02-12T18:07:02.052Z,12.03
2019-02-12T18:09:32.959Z,8.53
2019-02-12T18:12:03.979Z,12.10
2019-02-12T18:14:34.756Z,9.73
2019-02-12T18:17:05.804Z,8.50
2019-02-12T18:19:39.916Z,10.73
2019-02-12T18:22:11.820Z,12.90
2019-02-12T18:24:44.122Z,11.70
2019-02-12T18:27:16.307Z,22.50
2019-02-12T18:29:47.560Z,11.60
2019-02-12T18:32:21.642Z,13.67
2019-02-12T18:34:52.509Z,16.23
2019-02-12T18:37:23.650Z,17.07
2019-02-12T18:39:54.588Z,14.00
2019-02-12T18:42:25.548Z,20.57
2019-02-12T18:44:56.424Z,23.17
2019-02-12T18:47:27.537Z,20.77
2019-02-12T18:49:58.446Z,16.03
2019-02-12T18:52:29.327Z,25.03
2019-02-12T18:55:01.139Z,21.23
2019-02-12T18:57:32.013Z,23.17
2019-02-12T19:00:05.669Z,17.07
2019-02-12T19:02:37.021Z,17.03
2019-02-12T19:05:08.583Z,15.47
2019-02-12T19:07:39.585Z,13.80
2019-02-12T19:10:11.371Z,12.97
2019-02-12T19:12:42.480Z,11.63
2019-02-12T19:15:14.887Z,11.43
2019-02-12T19:17:51.543Z,9.80
2019-02-12T19:20:22.500Z,9.07
2019-02-12T19:22:53.378Z,15.10
2019-02-12T19:25:24.163Z,9.00
2019-02-12T19:27:54.859Z,13.70
2019-02-12T19:30:25.637Z,11.40
2019-02-12T19:32:56.635Z,8.50
2019-02-12T19:35:27.420Z,10.10
2019-02-12T19:37:58.593Z,13.53
2019-02-12T19:40:29.382Z,11.33
2019-02-12T19:43:00.377Z,12.30
2019-02-12T19:45:32.280Z,11.03
2019-02-12T19:48:03.320Z,14.73
2019-02-12T19:50:34.168Z,19.20
2019-02-12T19:53:05.911Z,10.30
2019-02-12T19:55:37.777Z,13.30
2019-02-12T19:58:08.974Z,8.57
2019-02-12T20:00:39.859Z,9.47
2019-02-12T20:03:10.908Z,9.57
2019-02-12T20:05:41.759Z,8.10
2019-02-12T20:08:12.741Z,12.93
2019-02-12T20:10:43.516Z,17.33
2019-02-12T20:13:14.508Z,13.73
2019-02-12T20:15:46.423Z,17.10
2019-02-12T20:18:17.404Z,15.00
2019-02-12T20:20:48.208Z,12.00
2019-02-12T20:23:19.094Z,13.53
2019-02-12T20:25:49.861Z,10.40
2019-02-12T20:28:20.761Z,11.43
2019-02-12T20:30:51.533Z,8.43
2019-02-12T20:33:22.450Z,8.53
2019-02-12T20:35:53.223Z,13.10
2019-02-12T20:38:24.193Z,9.47
2019-02-12T20:40:54.993Z,9.53
2019-02-12T20:43:25.978Z,7.33
2019-02-12T20:45:56.756Z,12.40
2019-02-12T20:48:27.704Z,14.27
2019-02-12T20:51:01.119Z,11.00
2019-02-12T20:53:32.599Z,12.67
2019-02-12T20:56:03.561Z,15.10
2019-02-12T20:58:35.759Z,10.57
2019-02-12T21:01:06.842Z,11.13
2019-02-12T21:03:37.935Z,10.43
2019-02-12T21:06:09.232Z,12.93
2019-02-12T21:08:40.107Z,9.30
2019-02-12T21:11:11.107Z,9.90
2019-02-12T21:13:43.054Z,8.70
2019-02-12T21:16:14.305Z,8.27
2019-02-12T21:18:45.302Z,7.80
2019-02-12T21:21:16.164Z,6.80
2019-02-12T21:23:47.043Z,8.30
2019-02-12T21:26:17.934Z,8.90
2019-02-12T21:28:48.819Z,12.50
2019-02-12T21:31:19.596Z,9.87
2019-02-12T21:33:50.478Z,13.23
2019-02-12T21:36:21.363Z,8.43
2019-02-12T21:38:52.253Z,13.20
2019-02-12T21:41:23.144Z,10.00
2019-02-12T21:43:54.352Z,11.63
2019-02-12T21:46:25.131Z,9.90
2019-02-12T21:48:56.026Z,12.40
2019-02-12T21:51:26.897Z,13.03
2019-02-12T21:53:58.637Z,13.27
2019-02-12T21:56:29.401Z,17.50
2019-02-12T21:59:00.272Z,10.10
2019-02-12T22:01:31.170Z,9.90
2019-02-12T22:04:02.068Z,9.10
2019-02-12T22:06:32.856Z,13.53
2019-02-12T22:09:05.202Z,7.60
2019-02-12T22:11:36.891Z,7.60
2019-02-12T22:14:07.766Z,9.40
2019-02-12T22:16:38.542Z,9.80
2019-02-12T22:19:09.454Z,8.13
2019-02-12T22:21:40.221Z,9.53
2019-02-12T22:24:11.113Z,9.80
2019-02-12T22:26:41.898Z,7.43
2019-02-12T22:29:12.852Z,7.83
2019-02-12T22:31:44.173Z,11.43
2019-02-12T22:34:15.187Z,9.60
2019-02-12T22:36:45.962Z,7.93
2019-02-12T22:39:16.954Z,9.00
2019-02-12T22:41:47.533Z,7.63
2019-02-12T22:44:18.460Z,15.03
2019-02-12T22:46:49.283Z,6.77
2019-02-12T22:49:20.190Z,7.47
2019-02-12T22:51:51.069Z,9.40
2019-02-12T22:54:21.954Z,6.27
2019-02-12T22:56:52.948Z,9.37
2019-02-12T22:59:23.860Z,10.30
2019-02-12T23:01:54.831Z,6.93
2019-02-12T23:04:26.278Z,13.93
2019-02-12T23:06:57.215Z,7.40
2019-02-12T23:09:28.215Z,6.63
2019-02-12T23:11:58.999Z,11.17
2019-02-12T23:14:30.007Z,6.23
2019-02-12T23:17:00.956Z,8.60
2019-02-12T23:19:31.968Z,8.10
2019-02-12T23:22:02.643Z,6.43
2019-02-12T23:24:33.525Z,6.07
2019-02-12T23:27:04.402Z,5.67
2019-02-12T23:29:35.491Z,6.63
2019-02-12T23:32:06.382Z,5.93
2019-02-12T23:34:38.210Z,4.60
2019-02-12T23:37:09.278Z,5.27
2019-02-12T23:39:41.178Z,7.57
2019-02-12T23:42:12.089Z,14.07
2019-02-12T23:44:43.065Z,7.40
2019-02-12T23:47:13.869Z,7.60
2019-02-12T23:49:44.847Z,9.00
2019-02-12T23:52:15.849Z,8.80
2019-02-12T23:54:46.841Z,8.63
2019-02-12T23:57:17.726Z,8.07
2019-02-12T23:59:48.665Z,7.40
